sensor_id;sensor_type;location;lat;lon;timestamp;P1;durP1;ratioP1;P2;durP2;ratioP2
36629;SDS011;36256;42.154;23.002;2023-06-22T00:01:18;17.10;;;12.50;;
36629;SDS011;36256;42.154;23.002;2023-06-22T00:03:46;13.88;;;12.30;;
36629;SDS011;36256;42.154;23.002;2023-06-22T00:06:13;16.38;;;13.15;;
36629;SDS011;36256;42.154;23.002;2023-06-22T00:08:40;13.63;;;12.20;;
36629;SDS011;36256;42.154;23.002;2023-06-22T00:11:06;13.63;;;12.07;;
36629;SDS011;36256;42.154;23.002;2023-06-22T00:16:00;15.48;;;13.82;;
36629;SDS011;36256;42.154;23.002;2023-06-22T00:18:27;18.30;;;13.95;;
36629;SDS011;36256;42.154;23.002;2023-06-22T00:23:25;16.02;;;14.32;;
36629;SDS011;36256;42.154;23.002;2023-06-22T00:25:52;13.32;;;12.02;;
36629;SDS011;36256;42.154;23.002;2023-06-22T00:28:19;14.85;;;11.85;;
36629;SDS011;36256;42.154;23.002;2023-06-22T00:30:45;13.20;;;11.85;;
36629;SDS011;36256;42.154;23.002;2023-06-22T00:33:12;15.93;;;12.13;;
36629;SDS011;36256;42.154;23.002;2023-06-22T00:35:39;13.50;;;12.10;;
36629;SDS011;36256;42.154;23.002;2023-06-22T00:38:07;13.75;;;11.98;;
36629;SDS011;36256;42.154;23.002;2023-06-22T00:40:34;12.98;;;11.68;;
36629;SDS011;36256;42.154;23.002;2023-06-22T00:43:01;14.77;;;11.40;;
36629;SDS011;36256;42.154;23.002;2023-06-22T00:45:28;14.52;;;11.43;;
36629;SDS011;36256;42.154;23.002;2023-06-22T00:47:56;16.40;;;11.52;;
36629;SDS011;36256;42.154;23.002;2023-06-22T00:50:24;14.45;;;11.68;;
36629;SDS011;36256;42.154;23.002;2023-06-22T00:52:55;15.00;;;12.15;;
36629;SDS011;36256;42.154;23.002;2023-06-22T00:55:23;13.77;;;11.82;;
36629;SDS011;36256;42.154;23.002;2023-06-22T00:57:52;14.68;;;12.20;;
36629;SDS011;36256;42.154;23.002;2023-06-22T01:00:23;16.25;;;12.60;;
36629;SDS011;36256;42.154;23.002;2023-06-22T01:02:52;14.43;;;11.85;;
36629;SDS011;36256;42.154;23.002;2023-06-22T01:05:20;15.02;;;12.45;;
36629;SDS011;36256;42.154;23.002;2023-06-22T01:08:04;14.13;;;12.35;;
36629;SDS011;36256;42.154;23.002;2023-06-22T01:10:43;13.80;;;11.93;;
36629;SDS011;36256;42.154;23.002;2023-06-22T01:15:51;14.50;;;12.85;;
36629;SDS011;36256;42.154;23.002;2023-06-22T01:18:23;16.73;;;12.25;;
36629;SDS011;36256;42.154;23.002;2023-06-22T01:20:53;16.90;;;12.10;;
36629;SDS011;36256;42.154;23.002;2023-06-22T01:23:37;14.43;;;12.70;;
36629;SDS011;36256;42.154;23.002;2023-06-22T01:28:59;14.38;;;11.98;;
36629;SDS011;36256;42.154;23.002;2023-06-22T01:31:27;14.27;;;12.25;;
36629;SDS011;36256;42.154;23.002;2023-06-22T01:33:57;16.55;;;12.57;;
36629;SDS011;36256;42.154;23.002;2023-06-22T01:36:27;16.98;;;13.30;;
36629;SDS011;36256;42.154;23.002;2023-06-22T01:38:55;14.35;;;12.85;;
36629;SDS011;36256;42.154;23.002;2023-06-22T01:41:25;16.75;;;12.60;;
36629;SDS011;36256;42.154;23.002;2023-06-22T01:43:53;16.70;;;12.65;;
36629;SDS011;36256;42.154;23.002;2023-06-22T01:46:21;17.55;;;13.45;;
36629;SDS011;36256;42.154;23.002;2023-06-22T01:48:49;16.73;;;13.18;;
36629;SDS011;36256;42.154;23.002;2023-06-22T01:51:17;14.10;;;12.57;;
36629;SDS011;36256;42.154;23.002;2023-06-22T01:53:44;17.08;;;13.18;;
36629;SDS011;36256;42.154;23.002;2023-06-22T01:56:10;16.92;;;13.45;;
36629;SDS011;36256;42.154;23.002;2023-06-22T02:01:28;17.88;;;14.50;;
36629;SDS011;36256;42.154;23.002;2023-06-22T02:04:03;16.10;;;14.40;;
36629;SDS011;36256;42.154;23.002;2023-06-22T02:06:38;17.83;;;14.47;;
36629;SDS011;36256;42.154;23.002;2023-06-22T02:09:09;15.32;;;13.70;;
36629;SDS011;36256;42.154;23.002;2023-06-22T02:11:41;19.52;;;14.48;;
36629;SDS011;36256;42.154;23.002;2023-06-22T02:14:10;15.75;;;13.98;;
36629;SDS011;36256;42.154;23.002;2023-06-22T02:16:40;22.35;;;13.85;;
36629;SDS011;36256;42.154;23.002;2023-06-22T02:19:08;17.50;;;13.73;;
36629;SDS011;36256;42.154;23.002;2023-06-22T02:21:35;19.83;;;13.77;;
36629;SDS011;36256;42.154;23.002;2023-06-22T02:24:01;16.48;;;13.60;;
36629;SDS011;36256;42.154;23.002;2023-06-22T02:26:28;16.58;;;13.82;;
36629;SDS011;36256;42.154;23.002;2023-06-22T02:28:55;19.70;;;14.18;;
36629;SDS011;36256;42.154;23.002;2023-06-22T02:31:22;19.70;;;13.98;;
36629;SDS011;36256;42.154;23.002;2023-06-22T02:33:58;17.73;;;15.07;;
36629;SDS011;36256;42.154;23.002;2023-06-22T02:36:25;19.65;;;15.55;;
36629;SDS011;36256;42.154;23.002;2023-06-22T02:38:54;18.55;;;15.63;;
36629;SDS011;36256;42.154;23.002;2023-06-22T02:41:22;22.38;;;16.20;;
36629;SDS011;36256;42.154;23.002;2023-06-22T02:43:49;20.38;;;14.88;;
36629;SDS011;36256;42.154;23.002;2023-06-22T02:46:16;17.83;;;16.00;;
36629;SDS011;36256;42.154;23.002;2023-06-22T02:48:42;18.83;;;15.07;;
36629;SDS011;36256;42.154;23.002;2023-06-22T02:51:12;19.08;;;15.38;;
36629;SDS011;36256;42.154;23.002;2023-06-22T02:53:39;17.98;;;15.32;;
36629;SDS011;36256;42.154;23.002;2023-06-22T02:56:06;18.80;;;15.60;;
36629;SDS011;36256;42.154;23.002;2023-06-22T02:58:32;19.50;;;15.27;;
36629;SDS011;36256;42.154;23.002;2023-06-22T03:01:05;18.05;;;14.98;;
36629;SDS011;36256;42.154;23.002;2023-06-22T03:03:32;20.25;;;15.63;;
36629;SDS011;36256;42.154;23.002;2023-06-22T03:05:59;18.13;;;15.45;;
36629;SDS011;36256;42.154;23.002;2023-06-22T03:10:55;18.70;;;15.45;;
36629;SDS011;36256;42.154;23.002;2023-06-22T03:15:49;21.40;;;17.00;;
36629;SDS011;36256;42.154;23.002;2023-06-22T03:18:16;22.95;;;17.13;;
36629;SDS011;36256;42.154;23.002;2023-06-22T03:20:42;21.23;;;17.65;;
36629;SDS011;36256;42.154;23.002;2023-06-22T03:23:09;21.48;;;17.45;;
36629;SDS011;36256;42.154;23.002;2023-06-22T03:25:36;22.70;;;17.48;;
36629;SDS011;36256;42.154;23.002;2023-06-22T03:28:03;25.67;;;17.30;;
36629;SDS011;36256;42.154;23.002;2023-06-22T03:30:29;20.70;;;15.95;;
36629;SDS011;36256;42.154;23.002;2023-06-22T03:32:57;18.67;;;16.65;;
36629;SDS011;36256;42.154;23.002;2023-06-22T03:35:23;20.00;;;17.02;;
36629;SDS011;36256;42.154;23.002;2023-06-22T03:37:50;21.92;;;17.00;;
36629;SDS011;36256;42.154;23.002;2023-06-22T03:40:17;28.40;;;16.23;;
36629;SDS011;36256;42.154;23.002;2023-06-22T03:42:44;20.85;;;16.63;;
36629;SDS011;36256;42.154;23.002;2023-06-22T03:45:10;23.17;;;17.15;;
36629;SDS011;36256;42.154;23.002;2023-06-22T03:47:37;21.33;;;16.67;;
36629;SDS011;36256;42.154;23.002;2023-06-22T03:50:04;18.55;;;16.55;;
36629;SDS011;36256;42.154;23.002;2023-06-22T03:52:32;19.15;;;15.90;;
36629;SDS011;36256;42.154;23.002;2023-06-22T03:54:59;19.90;;;17.05;;
36629;SDS011;36256;42.154;23.002;2023-06-22T03:57:25;24.77;;;18.08;;
36629;SDS011;36256;42.154;23.002;2023-06-22T03:59:54;20.63;;;18.25;;
36629;SDS011;36256;42.154;23.002;2023-06-22T04:02:22;20.55;;;16.65;;
36629;SDS011;36256;42.154;23.002;2023-06-22T04:04:49;23.42;;;18.95;;
36629;SDS011;36256;42.154;23.002;2023-06-22T04:07:16;23.45;;;18.48;;
36629;SDS011;36256;42.154;23.002;2023-06-22T04:09:44;22.67;;;18.88;;
36629;SDS011;36256;42.154;23.002;2023-06-22T04:12:11;25.77;;;20.88;;
36629;SDS011;36256;42.154;23.002;2023-06-22T04:14:37;24.77;;;20.55;;
36629;SDS011;36256;42.154;23.002;2023-06-22T04:17:04;19.98;;;17.48;;
36629;SDS011;36256;42.154;23.002;2023-06-22T04:19:31;122.00;;;23.45;;
36629;SDS011;36256;42.154;23.002;2023-06-22T04:21:58;22.88;;;18.20;;
36629;SDS011;36256;42.154;23.002;2023-06-22T04:24:25;21.77;;;16.42;;
36629;SDS011;36256;42.154;23.002;2023-06-22T04:26:51;19.02;;;17.02;;
36629;SDS011;36256;42.154;23.002;2023-06-22T04:29:21;20.20;;;16.35;;
36629;SDS011;36256;42.154;23.002;2023-06-22T04:31:55;19.90;;;16.20;;
36629;SDS011;36256;42.154;23.002;2023-06-22T04:34:25;20.17;;;16.02;;
36629;SDS011;36256;42.154;23.002;2023-06-22T04:36:54;21.92;;;15.75;;
36629;SDS011;36256;42.154;23.002;2023-06-22T04:39:21;18.90;;;15.60;;
36629;SDS011;36256;42.154;23.002;2023-06-22T04:41:48;17.05;;;15.25;;
36629;SDS011;36256;42.154;23.002;2023-06-22T04:44:16;17.90;;;16.00;;
36629;SDS011;36256;42.154;23.002;2023-06-22T04:49:26;23.05;;;15.90;;
36629;SDS011;36256;42.154;23.002;2023-06-22T04:52:01;16.90;;;15.20;;
36629;SDS011;36256;42.154;23.002;2023-06-22T04:54:29;21.58;;;16.30;;
36629;SDS011;36256;42.154;23.002;2023-06-22T04:57:02;20.48;;;16.25;;
36629;SDS011;36256;42.154;23.002;2023-06-22T04:59:31;19.10;;;15.63;;
36629;SDS011;36256;42.154;23.002;2023-06-22T05:04:26;19.77;;;14.65;;
36629;SDS011;36256;42.154;23.002;2023-06-22T05:07:05;16.60;;;14.38;;
36629;SDS011;36256;42.154;23.002;2023-06-22T05:09:33;18.48;;;14.63;;
36629;SDS011;36256;42.154;23.002;2023-06-22T05:12:00;16.40;;;14.05;;
36629;SDS011;36256;42.154;23.002;2023-06-22T05:14:29;18.15;;;15.02;;
36629;SDS011;36256;42.154;23.002;2023-06-22T05:16:56;17.35;;;14.40;;
36629;SDS011;36256;42.154;23.002;2023-06-22T05:19:25;71.13;;;17.58;;
36629;SDS011;36256;42.154;23.002;2023-06-22T05:21:57;18.98;;;14.70;;
36629;SDS011;36256;42.154;23.002;2023-06-22T05:24:24;15.00;;;13.45;;
36629;SDS011;36256;42.154;23.002;2023-06-22T05:26:52;17.85;;;13.65;;
36629;SDS011;36256;42.154;23.002;2023-06-22T05:29:18;19.35;;;15.20;;
36629;SDS011;36256;42.154;23.002;2023-06-22T05:31:45;19.73;;;14.55;;
36629;SDS011;36256;42.154;23.002;2023-06-22T05:34:12;17.67;;;14.90;;
36629;SDS011;36256;42.154;23.002;2023-06-22T05:36:39;16.55;;;14.85;;
36629;SDS011;36256;42.154;23.002;2023-06-22T05:39:12;17.33;;;15.48;;
36629;SDS011;36256;42.154;23.002;2023-06-22T05:41:40;17.08;;;15.23;;
36629;SDS011;36256;42.154;23.002;2023-06-22T05:46:34;16.75;;;14.98;;
36629;SDS011;36256;42.154;23.002;2023-06-22T05:49:01;24.45;;;15.00;;
36629;SDS011;36256;42.154;23.002;2023-06-22T05:51:28;17.67;;;14.95;;
36629;SDS011;36256;42.154;23.002;2023-06-22T05:53:54;18.85;;;14.77;;
36629;SDS011;36256;42.154;23.002;2023-06-22T05:56:21;16.35;;;14.00;;
36629;SDS011;36256;42.154;23.002;2023-06-22T05:58:47;16.95;;;13.85;;
36629;SDS011;36256;42.154;23.002;2023-06-22T06:01:14;39.25;;;14.45;;
36629;SDS011;36256;42.154;23.002;2023-06-22T06:03:42;14.65;;;12.80;;
36629;SDS011;36256;42.154;23.002;2023-06-22T06:06:08;14.73;;;12.60;;
36629;SDS011;36256;42.154;23.002;2023-06-22T06:08:37;16.33;;;12.30;;
36629;SDS011;36256;42.154;23.002;2023-06-22T06:11:04;13.40;;;11.70;;
36629;SDS011;36256;42.154;23.002;2023-06-22T06:15:58;15.13;;;11.60;;
36629;SDS011;36256;42.154;23.002;2023-06-22T06:18:25;14.10;;;11.68;;
36629;SDS011;36256;42.154;23.002;2023-06-22T06:20:52;11.93;;;10.55;;
36629;SDS011;36256;42.154;23.002;2023-06-22T06:23:19;15.05;;;11.13;;
36629;SDS011;36256;42.154;23.002;2023-06-22T06:25:46;13.73;;;12.13;;
36629;SDS011;36256;42.154;23.002;2023-06-22T06:28:12;15.77;;;11.75;;
36629;SDS011;36256;42.154;23.002;2023-06-22T06:30:39;14.25;;;11.38;;
36629;SDS011;36256;42.154;23.002;2023-06-22T06:33:07;14.20;;;11.75;;
36629;SDS011;36256;42.154;23.002;2023-06-22T06:35:35;13.38;;;12.00;;
36629;SDS011;36256;42.154;23.002;2023-06-22T06:40:29;13.85;;;11.93;;
36629;SDS011;36256;42.154;23.002;2023-06-22T06:42:56;14.80;;;11.85;;
36629;SDS011;36256;42.154;23.002;2023-06-22T06:45:23;16.92;;;12.20;;
36629;SDS011;36256;42.154;23.002;2023-06-22T06:47:51;15.80;;;12.85;;
36629;SDS011;36256;42.154;23.002;2023-06-22T06:50:19;15.10;;;11.50;;
36629;SDS011;36256;42.154;23.002;2023-06-22T06:52:45;15.30;;;12.13;;
36629;SDS011;36256;42.154;23.002;2023-06-22T06:55:12;16.27;;;12.65;;
36629;SDS011;36256;42.154;23.002;2023-06-22T06:57:40;15.20;;;12.63;;
36629;SDS011;36256;42.154;23.002;2023-06-22T07:00:09;16.10;;;12.38;;
36629;SDS011;36256;42.154;23.002;2023-06-22T07:02:40;14.70;;;12.18;;
36629;SDS011;36256;42.154;23.002;2023-06-22T07:05:08;13.68;;;12.27;;
36629;SDS011;36256;42.154;23.002;2023-06-22T07:07:36;13.55;;;12.15;;
36629;SDS011;36256;42.154;23.002;2023-06-22T07:10:04;13.77;;;12.02;;
36629;SDS011;36256;42.154;23.002;2023-06-22T07:12:32;13.95;;;12.55;;
36629;SDS011;36256;42.154;23.002;2023-06-22T07:15:06;13.65;;;12.25;;
36629;SDS011;36256;42.154;23.002;2023-06-22T07:17:35;12.68;;;11.32;;
36629;SDS011;36256;42.154;23.002;2023-06-22T07:20:02;13.85;;;12.55;;
36629;SDS011;36256;42.154;23.002;2023-06-22T07:22:36;14.25;;;12.43;;
36629;SDS011;36256;42.154;23.002;2023-06-22T07:25:04;12.75;;;11.55;;
36629;SDS011;36256;42.154;23.002;2023-06-22T07:27:36;13.80;;;12.40;;
36629;SDS011;36256;42.154;23.002;2023-06-22T07:30:04;15.07;;;12.02;;
36629;SDS011;36256;42.154;23.002;2023-06-22T07:32:32;15.23;;;12.60;;
36629;SDS011;36256;42.154;23.002;2023-06-22T07:34:59;14.38;;;12.88;;
36629;SDS011;36256;42.154;23.002;2023-06-22T07:37:25;13.38;;;11.98;;
36629;SDS011;36256;42.154;23.002;2023-06-22T07:39:54;16.05;;;12.88;;
36629;SDS011;36256;42.154;23.002;2023-06-22T07:42:25;14.05;;;12.48;;
36629;SDS011;36256;42.154;23.002;2023-06-22T07:44:53;14.32;;;12.60;;
36629;SDS011;36256;42.154;23.002;2023-06-22T07:47:21;13.38;;;11.98;;
36629;SDS011;36256;42.154;23.002;2023-06-22T07:49:51;15.25;;;12.48;;
36629;SDS011;36256;42.154;23.002;2023-06-22T07:52:21;14.55;;;13.13;;
36629;SDS011;36256;42.154;23.002;2023-06-22T07:54:48;13.27;;;12.07;;
36629;SDS011;36256;42.154;23.002;2023-06-22T07:57:14;21.13;;;13.02;;
36629;SDS011;36256;42.154;23.002;2023-06-22T07:59:41;16.95;;;12.63;;
36629;SDS011;36256;42.154;23.002;2023-06-22T08:02:08;14.02;;;12.60;;
36629;SDS011;36256;42.154;23.002;2023-06-22T08:04:36;17.95;;;12.68;;
36629;SDS011;36256;42.154;23.002;2023-06-22T08:09:30;14.63;;;13.15;;
36629;SDS011;36256;42.154;23.002;2023-06-22T08:11:58;14.73;;;13.32;;
36629;SDS011;36256;42.154;23.002;2023-06-22T08:14:26;14.23;;;12.82;;
36629;SDS011;36256;42.154;23.002;2023-06-22T08:16:54;15.13;;;13.52;;
36629;SDS011;36256;42.154;23.002;2023-06-22T08:19:20;14.98;;;13.48;;
36629;SDS011;36256;42.154;23.002;2023-06-22T08:21:47;16.00;;;13.65;;
36629;SDS011;36256;42.154;23.002;2023-06-22T08:24:14;19.10;;;12.90;;
36629;SDS011;36256;42.154;23.002;2023-06-22T08:26:41;16.20;;;12.52;;
36629;SDS011;36256;42.154;23.002;2023-06-22T08:29:07;16.65;;;12.70;;
36629;SDS011;36256;42.154;23.002;2023-06-22T08:31:34;34.30;;;13.77;;
36629;SDS011;36256;42.154;23.002;2023-06-22T08:36:28;13.43;;;12.13;;
36629;SDS011;36256;42.154;23.002;2023-06-22T08:38:59;13.77;;;12.25;;
36629;SDS011;36256;42.154;23.002;2023-06-22T08:41:28;13.85;;;12.40;;
36629;SDS011;36256;42.154;23.002;2023-06-22T08:43:55;13.43;;;11.98;;
36629;SDS011;36256;42.154;23.002;2023-06-22T08:46:22;31.35;;;13.55;;
36629;SDS011;36256;42.154;23.002;2023-06-22T08:48:50;13.45;;;12.20;;
36629;SDS011;36256;42.154;23.002;2023-06-22T08:51:17;18.95;;;11.75;;
36629;SDS011;36256;42.154;23.002;2023-06-22T08:53:44;12.50;;;11.00;;
36629;SDS011;36256;42.154;23.002;2023-06-22T08:56:11;12.55;;;10.75;;
36629;SDS011;36256;42.154;23.002;2023-06-22T08:58:38;12.77;;;11.57;;
36629;SDS011;36256;42.154;23.002;2023-06-22T09:01:05;15.30;;;11.63;;
36629;SDS011;36256;42.154;23.002;2023-06-22T09:03:31;12.30;;;11.07;;
36629;SDS011;36256;42.154;23.002;2023-06-22T09:05:59;12.45;;;11.18;;
36629;SDS011;36256;42.154;23.002;2023-06-22T09:08:26;12.18;;;10.90;;
36629;SDS011;36256;42.154;23.002;2023-06-22T09:10:53;12.98;;;11.50;;
36629;SDS011;36256;42.154;23.002;2023-06-22T09:13:19;14.43;;;11.18;;
36629;SDS011;36256;42.154;23.002;2023-06-22T09:15:46;13.50;;;11.18;;
36629;SDS011;36256;42.154;23.002;2023-06-22T09:18:13;12.55;;;10.77;;
36629;SDS011;36256;42.154;23.002;2023-06-22T09:20:40;12.02;;;10.73;;
36629;SDS011;36256;42.154;23.002;2023-06-22T09:23:07;23.15;;;11.30;;
36629;SDS011;36256;42.154;23.002;2023-06-22T09:25:34;11.95;;;10.85;;
36629;SDS011;36256;42.154;23.002;2023-06-22T09:28:01;10.88;;;9.57;;
36629;SDS011;36256;42.154;23.002;2023-06-22T09:30:28;11.88;;;8.55;;
36629;SDS011;36256;42.154;23.002;2023-06-22T09:32:55;8.13;;;7.43;;
36629;SDS011;36256;42.154;23.002;2023-06-22T09:35:21;8.48;;;7.68;;
36629;SDS011;36256;42.154;23.002;2023-06-22T09:37:48;7.55;;;6.75;;
36629;SDS011;36256;42.154;23.002;2023-06-22T09:40:15;8.48;;;7.45;;
36629;SDS011;36256;42.154;23.002;2023-06-22T09:42:43;8.27;;;6.93;;
36629;SDS011;36256;42.154;23.002;2023-06-22T09:45:10;8.95;;;6.95;;
36629;SDS011;36256;42.154;23.002;2023-06-22T09:47:37;9.57;;;7.70;;
36629;SDS011;36256;42.154;23.002;2023-06-22T09:50:04;7.90;;;7.18;;
36629;SDS011;36256;42.154;23.002;2023-06-22T09:52:32;11.18;;;8.27;;
36629;SDS011;36256;42.154;23.002;2023-06-22T09:55:13;10.05;;;7.90;;
36629;SDS011;36256;42.154;23.002;2023-06-22T09:57:42;8.18;;;7.35;;
36629;SDS011;36256;42.154;23.002;2023-06-22T10:00:09;8.80;;;7.60;;
36629;SDS011;36256;42.154;23.002;2023-06-22T10:02:40;7.68;;;6.97;;
36629;SDS011;36256;42.154;23.002;2023-06-22T10:05:08;7.88;;;7.07;;
36629;SDS011;36256;42.154;23.002;2023-06-22T10:07:35;8.07;;;7.10;;
36629;SDS011;36256;42.154;23.002;2023-06-22T10:10:06;8.00;;;7.20;;
36629;SDS011;36256;42.154;23.002;2023-06-22T10:12:33;11.07;;;7.50;;
36629;SDS011;36256;42.154;23.002;2023-06-22T10:15:00;7.90;;;7.15;;
36629;SDS011;36256;42.154;23.002;2023-06-22T10:17:27;10.32;;;6.82;;
36629;SDS011;36256;42.154;23.002;2023-06-22T10:19:54;7.65;;;6.82;;
36629;SDS011;36256;42.154;23.002;2023-06-22T10:22:21;8.55;;;7.03;;
36629;SDS011;36256;42.154;23.002;2023-06-22T10:24:47;7.47;;;6.72;;
36629;SDS011;36256;42.154;23.002;2023-06-22T10:27:14;8.93;;;7.45;;
36629;SDS011;36256;42.154;23.002;2023-06-22T10:29:41;7.43;;;6.70;;
36629;SDS011;36256;42.154;23.002;2023-06-22T10:34:34;10.13;;;7.07;;
36629;SDS011;36256;42.154;23.002;2023-06-22T10:37:01;7.47;;;6.78;;
36629;SDS011;36256;42.154;23.002;2023-06-22T10:39:27;9.32;;;6.60;;
36629;SDS011;36256;42.154;23.002;2023-06-22T10:41:54;8.73;;;6.80;;
36629;SDS011;36256;42.154;23.002;2023-06-22T10:44:22;7.53;;;6.68;;
36629;SDS011;36256;42.154;23.002;2023-06-22T10:46:49;8.13;;;7.03;;
36629;SDS011;36256;42.154;23.002;2023-06-22T10:56:35;7.35;;;6.30;;
36629;SDS011;36256;42.154;23.002;2023-06-22T10:59:02;7.18;;;6.47;;
36629;SDS011;36256;42.154;23.002;2023-06-22T11:01:29;6.88;;;6.28;;
36629;SDS011;36256;42.154;23.002;2023-06-22T11:04:02;8.82;;;6.90;;
36629;SDS011;36256;42.154;23.002;2023-06-22T11:06:30;8.43;;;6.80;;
36629;SDS011;36256;42.154;23.002;2023-06-22T11:08:56;7.22;;;6.55;;
36629;SDS011;36256;42.154;23.002;2023-06-22T11:11:37;7.75;;;6.53;;
36629;SDS011;36256;42.154;23.002;2023-06-22T11:14:04;7.00;;;6.38;;
36629;SDS011;36256;42.154;23.002;2023-06-22T11:16:31;7.22;;;6.53;;
36629;SDS011;36256;42.154;23.002;2023-06-22T11:18:58;8.60;;;6.35;;
36629;SDS011;36256;42.154;23.002;2023-06-22T11:21:25;7.75;;;6.75;;
36629;SDS011;36256;42.154;23.002;2023-06-22T11:23:51;7.07;;;6.47;;
36629;SDS011;36256;42.154;23.002;2023-06-22T11:26:18;8.32;;;6.82;;
36629;SDS011;36256;42.154;23.002;2023-06-22T11:28:45;7.95;;;6.82;;
36629;SDS011;36256;42.154;23.002;2023-06-22T11:33:41;7.20;;;6.60;;
36629;SDS011;36256;42.154;23.002;2023-06-22T11:36:08;8.68;;;7.38;;
36629;SDS011;36256;42.154;23.002;2023-06-22T11:38:35;8.35;;;6.90;;
36629;SDS011;36256;42.154;23.002;2023-06-22T11:41:08;7.50;;;6.80;;
36629;SDS011;36256;42.154;23.002;2023-06-22T11:43:36;8.38;;;7.00;;
36629;SDS011;36256;42.154;23.002;2023-06-22T11:46:03;7.93;;;7.03;;
36629;SDS011;36256;42.154;23.002;2023-06-22T11:48:31;7.60;;;6.80;;
36629;SDS011;36256;42.154;23.002;2023-06-22T11:53:26;9.65;;;7.15;;
36629;SDS011;36256;42.154;23.002;2023-06-22T11:55:53;8.68;;;6.80;;
36629;SDS011;36256;42.154;23.002;2023-06-22T11:58:21;13.23;;;7.65;;
36629;SDS011;36256;42.154;23.002;2023-06-22T12:00:48;8.43;;;7.22;;
36629;SDS011;36256;42.154;23.002;2023-06-22T12:03:18;10.13;;;7.60;;
36629;SDS011;36256;42.154;23.002;2023-06-22T12:05:46;37.53;;;9.70;;
36629;SDS011;36256;42.154;23.002;2023-06-22T12:10:40;9.77;;;7.43;;
36629;SDS011;36256;42.154;23.002;2023-06-22T12:13:07;8.95;;;7.93;;
36629;SDS011;36256;42.154;23.002;2023-06-22T12:15:33;8.80;;;7.97;;
36629;SDS011;36256;42.154;23.002;2023-06-22T12:18:00;8.63;;;7.82;;
36629;SDS011;36256;42.154;23.002;2023-06-22T12:20:28;10.75;;;8.68;;
36629;SDS011;36256;42.154;23.002;2023-06-22T12:22:55;10.73;;;8.23;;
36629;SDS011;36256;42.154;23.002;2023-06-22T12:25:24;24.33;;;8.25;;
36629;SDS011;36256;42.154;23.002;2023-06-22T12:27:51;10.90;;;7.75;;
36629;SDS011;36256;42.154;23.002;2023-06-22T12:30:18;8.88;;;7.95;;
36629;SDS011;36256;42.154;23.002;2023-06-22T12:32:45;9.13;;;8.20;;
36629;SDS011;36256;42.154;23.002;2023-06-22T12:37:43;9.60;;;8.60;;
36629;SDS011;36256;42.154;23.002;2023-06-22T12:40:10;9.35;;;8.50;;
36629;SDS011;36256;42.154;23.002;2023-06-22T12:42:37;11.40;;;8.80;;
36629;SDS011;36256;42.154;23.002;2023-06-22T12:45:04;9.23;;;8.32;;
36629;SDS011;36256;42.154;23.002;2023-06-22T12:47:31;10.65;;;9.10;;
36629;SDS011;36256;42.154;23.002;2023-06-22T12:52:25;12.35;;;9.57;;
36629;SDS011;36256;42.154;23.002;2023-06-22T12:54:52;12.60;;;9.48;;
36629;SDS011;36256;42.154;23.002;2023-06-22T12:57:21;13.68;;;9.65;;
36629;SDS011;36256;42.154;23.002;2023-06-22T12:59:48;10.93;;;8.93;;
36629;SDS011;36256;42.154;23.002;2023-06-22T13:02:15;11.18;;;9.38;;
36629;SDS011;36256;42.154;23.002;2023-06-22T13:07:09;10.05;;;9.07;;
36629;SDS011;36256;42.154;23.002;2023-06-22T13:09:48;10.43;;;9.02;;
36629;SDS011;36256;42.154;23.002;2023-06-22T13:12:19;12.23;;;8.88;;
36629;SDS011;36256;42.154;23.002;2023-06-22T13:14:49;10.15;;;8.88;;
36629;SDS011;36256;42.154;23.002;2023-06-22T13:17:16;11.15;;;9.10;;
36629;SDS011;36256;42.154;23.002;2023-06-22T13:24:59;15.82;;;8.63;;
36629;SDS011;36256;42.154;23.002;2023-06-22T13:27:26;10.05;;;8.15;;
36629;SDS011;36256;42.154;23.002;2023-06-22T13:32:19;8.77;;;7.88;;
36629;SDS011;36256;42.154;23.002;2023-06-22T13:37:13;9.07;;;7.57;;
36629;SDS011;36256;42.154;23.002;2023-06-22T13:44:33;10.40;;;6.45;;
36629;SDS011;36256;42.154;23.002;2023-06-22T13:47:00;7.63;;;6.30;;
36629;SDS011;36256;42.154;23.002;2023-06-22T13:49:26;9.95;;;6.55;;
36629;SDS011;36256;42.154;23.002;2023-06-22T13:51:53;10.90;;;5.40;;
36629;SDS011;36256;42.154;23.002;2023-06-22T13:54:21;8.95;;;5.40;;
36629;SDS011;36256;42.154;23.002;2023-06-22T13:56:51;8.57;;;5.00;;
36629;SDS011;36256;42.154;23.002;2023-06-22T13:59:18;6.80;;;5.53;;
36629;SDS011;36256;42.154;23.002;2023-06-22T14:17:12;12.43;;;7.05;;
36629;SDS011;36256;42.154;23.002;2023-06-22T14:19:39;7.68;;;6.85;;
36629;SDS011;36256;42.154;23.002;2023-06-22T14:22:05;10.68;;;7.25;;
36629;SDS011;36256;42.154;23.002;2023-06-22T14:24:32;10.40;;;7.70;;
36629;SDS011;36256;42.154;23.002;2023-06-22T14:26:59;10.07;;;7.38;;
36629;SDS011;36256;42.154;23.002;2023-06-22T14:29:28;8.70;;;7.45;;
36629;SDS011;36256;42.154;23.002;2023-06-22T14:31:55;43.42;;;10.95;;
36629;SDS011;36256;42.154;23.002;2023-06-22T14:34:22;10.80;;;8.50;;
36629;SDS011;36256;42.154;23.002;2023-06-22T14:36:49;13.27;;;8.88;;
36629;SDS011;36256;42.154;23.002;2023-06-22T14:39:16;11.25;;;8.48;;
36629;SDS011;36256;42.154;23.002;2023-06-22T14:41:42;13.00;;;8.57;;
36629;SDS011;36256;42.154;23.002;2023-06-22T14:44:09;12.25;;;8.57;;
36629;SDS011;36256;42.154;23.002;2023-06-22T14:46:36;12.52;;;8.07;;
36629;SDS011;36256;42.154;23.002;2023-06-22T14:49:03;13.85;;;8.73;;
36629;SDS011;36256;42.154;23.002;2023-06-22T14:51:29;12.65;;;8.40;;
36629;SDS011;36256;42.154;23.002;2023-06-22T14:53:56;11.57;;;8.40;;
36629;SDS011;36256;42.154;23.002;2023-06-22T14:56:23;8.55;;;7.57;;
36629;SDS011;36256;42.154;23.002;2023-06-22T15:03:44;13.48;;;10.43;;
36629;SDS011;36256;42.154;23.002;2023-06-22T15:06:11;9.88;;;7.60;;
36629;SDS011;36256;42.154;23.002;2023-06-22T15:08:38;9.70;;;7.70;;
36629;SDS011;36256;42.154;23.002;2023-06-22T15:11:06;13.10;;;7.78;;
36629;SDS011;36256;42.154;23.002;2023-06-22T15:13:33;30.45;;;16.63;;
36629;SDS011;36256;42.154;23.002;2023-06-22T15:16:01;12.75;;;8.90;;
36629;SDS011;36256;42.154;23.002;2023-06-22T15:18:31;9.85;;;6.90;;
36629;SDS011;36256;42.154;23.002;2023-06-22T15:21:02;12.38;;;9.18;;
36629;SDS011;36256;42.154;23.002;2023-06-22T15:23:29;7.88;;;6.32;;
36629;SDS011;36256;42.154;23.002;2023-06-22T15:25:57;8.75;;;6.03;;
36629;SDS011;36256;42.154;23.002;2023-06-22T15:28:24;7.82;;;5.57;;
36629;SDS011;36256;42.154;23.002;2023-06-22T15:30:52;7.82;;;5.38;;
36629;SDS011;36256;42.154;23.002;2023-06-22T15:33:19;10.27;;;5.80;;
36629;SDS011;36256;42.154;23.002;2023-06-22T15:35:46;12.18;;;4.85;;
36629;SDS011;36256;42.154;23.002;2023-06-22T15:52:43;9.38;;;6.18;;
36629;SDS011;36256;42.154;23.002;2023-06-22T15:55:17;9.63;;;6.68;;
36629;SDS011;36256;42.154;23.002;2023-06-22T15:57:45;8.95;;;6.55;;
36629;SDS011;36256;42.154;23.002;2023-06-22T16:00:14;10.75;;;6.85;;
36629;SDS011;36256;42.154;23.002;2023-06-22T16:02:45;10.90;;;7.28;;
36629;SDS011;36256;42.154;23.002;2023-06-22T16:05:13;12.77;;;7.43;;
36629;SDS011;36256;42.154;23.002;2023-06-22T16:07:40;13.20;;;7.55;;
36629;SDS011;36256;42.154;23.002;2023-06-22T16:10:07;10.25;;;7.47;;